Steamboat, Nevada
Current Conditions -  °F | °C
As of 3:55 PM on Thursday 27 Nov 2014 (Local Time) from KRNO Reporting Station
Broken Clouds Broken Clouds  
Wind Chill: 69°   Ceiling: 25000
Heat Index: 69°   Visibility: 10mi
Dew Point: 16°   Wind: 13mph
Humidity: 13%   Direction: 200°SSW
Pressure: 30.13"   Gusts: 20mph
Location:  39.3905°N, 119.807°W
Report Text: KRNO 272355Z 20011G17KT 10SM FEW150 SCT220 BKN250 21/M09 A3013 RMK AO2 SLP173 ACSL OHD-SE DSNT N W T02061089 10228 20100 55011
Loading
Personal Weather Stations






























Interactive Weather Map New forecast layout! Learn more

10-Day Weather Forecast

Advertisements
Track Severe Weather on mobile